createdAt,value
2022-09-23T00:02:47.886Z,9.27
2022-09-23T00:06:01.517Z,8.57
2022-09-23T00:09:04.183Z,8.68
2022-09-23T00:12:08.990Z,9.98
2022-09-23T00:15:11.924Z,9.17
2022-09-23T00:18:14.425Z,9.73
2022-09-23T00:21:18.074Z,8.77
2022-09-23T00:24:20.899Z,7.68
2022-09-23T00:27:23.425Z,8.82
2022-09-23T00:30:25.969Z,8.50
2022-09-23T00:33:29.988Z,9.63
2022-09-23T00:36:35.441Z,8.98
2022-09-23T00:39:37.890Z,9.18
2022-09-23T00:42:50.037Z,9.30
2022-09-23T00:45:52.606Z,8.33
2022-09-23T00:49:11.628Z,13.00
2022-09-23T00:52:18.123Z,8.52
2022-09-23T00:55:27.988Z,10.35
2022-09-23T00:58:35.714Z,8.80
2022-09-23T01:01:38.835Z,9.63
2022-09-23T01:04:41.471Z,8.65
2022-09-23T01:07:45.985Z,8.85
2022-09-23T01:10:55.177Z,8.35
2022-09-23T01:14:16.819Z,8.85
2022-09-23T01:17:36.217Z,9.23
2022-09-23T01:20:59.497Z,10.77
2022-09-23T01:24:23.755Z,8.75
2022-09-23T01:27:54.864Z,8.88
2022-09-23T01:31:16.655Z,7.80
2022-09-23T01:34:26.296Z,8.13
2022-09-23T01:37:41.167Z,9.82
2022-09-23T01:41:10.401Z,7.85
2022-09-23T01:44:29.614Z,7.60
2022-09-23T01:47:41.455Z,9.25
2022-09-23T01:50:56.944Z,9.83
2022-09-23T01:54:16.051Z,8.82
2022-09-23T01:57:44.055Z,7.85
2022-09-23T02:01:00.418Z,9.05
2022-09-23T02:04:10.374Z,8.63
2022-09-23T02:07:28.737Z,8.40
2022-09-23T02:10:36.170Z,7.45
2022-09-23T02:13:50.734Z,8.90
2022-09-23T02:16:56.248Z,9.45
2022-09-23T02:20:02.363Z,9.27
2022-09-23T02:23:13.188Z,8.37
2022-09-23T02:26:21.833Z,8.32
2022-09-23T02:29:40.395Z,8.55
2022-09-23T02:32:58.991Z,9.30
2022-09-23T02:36:08.124Z,8.20
2022-09-23T02:39:14.284Z,11.23
2022-09-23T02:42:21.911Z,8.63
2022-09-23T02:45:24.411Z,7.82
2022-09-23T02:48:34.558Z,7.35
2022-09-23T02:51:38.341Z,8.13
2022-09-23T02:54:40.975Z,9.33
2022-09-23T02:57:43.591Z,8.73
2022-09-23T03:01:13.143Z,8.45
2022-09-23T03:04:36.015Z,8.38
2022-09-23T03:08:00.208Z,7.50
2022-09-23T03:11:11.399Z,8.00
2022-09-23T03:14:23.154Z,9.02
2022-09-23T03:17:44.793Z,9.40
2022-09-23T03:20:53.940Z,8.32
2022-09-23T03:24:00.176Z,9.70
2022-09-23T03:27:05.767Z,11.27
2022-09-23T03:30:09.010Z,9.05
2022-09-23T03:33:13.228Z,9.73
2022-09-23T03:36:37.887Z,8.85
2022-09-23T03:39:44.500Z,8.82
2022-09-23T03:42:50.264Z,8.03
2022-09-23T03:45:57.568Z,10.50
2022-09-23T03:49:09.558Z,8.05
2022-09-23T03:52:11.995Z,8.98
2022-09-23T03:55:16.479Z,9.07
2022-09-23T03:58:18.884Z,8.33
2022-09-23T04:01:24.661Z,8.65
2022-09-23T04:04:32.519Z,8.27
2022-09-23T04:07:39.719Z,8.73
2022-09-23T04:10:42.362Z,10.30
2022-09-23T04:13:44.839Z,9.37
2022-09-23T04:16:48.300Z,9.07
2022-09-23T04:19:50.845Z,8.45
2022-09-23T04:22:53.215Z,9.15
2022-09-23T04:25:55.810Z,9.98
2022-09-23T04:28:58.657Z,11.47
2022-09-23T04:32:01.358Z,10.27
2022-09-23T04:35:04.697Z,9.10
2022-09-23T04:38:07.450Z,8.98
2022-09-23T04:41:10.019Z,8.77
2022-09-23T04:44:16.016Z,9.47
2022-09-23T04:47:19.474Z,9.23
2022-09-23T04:50:21.976Z,8.13
2022-09-23T04:53:24.480Z,8.35
2022-09-23T04:56:29.288Z,9.02
2022-09-23T04:59:31.892Z,11.60
2022-09-23T05:02:36.813Z,13.85
2022-09-23T05:05:39.368Z,10.15
2022-09-23T05:08:46.375Z,11.68
2022-09-23T05:11:48.986Z,10.32
2022-09-23T05:14:51.427Z,10.03
2022-09-23T05:17:58.164Z,11.50
2022-09-23T05:21:01.267Z,10.52
2022-09-23T05:24:04.303Z,11.18
2022-09-23T05:27:07.895Z,12.10
2022-09-23T05:30:11.760Z,13.57
2022-09-23T05:33:14.385Z,10.57
2022-09-23T05:36:20.743Z,12.43
2022-09-23T05:39:24.055Z,12.10
2022-09-23T05:42:26.685Z,12.88
2022-09-23T05:45:29.783Z,14.23
2022-09-23T05:48:33.611Z,14.85
2022-09-23T05:51:36.151Z,20.17
2022-09-23T05:54:38.695Z,25.20
2022-09-23T05:57:41.148Z,22.30
2022-09-23T06:00:44.291Z,22.33
2022-09-23T06:03:48.373Z,24.20
2022-09-23T06:06:50.985Z,27.25
2022-09-23T06:09:54.092Z,27.95
2022-09-23T06:12:57.171Z,30.85
2022-09-23T06:15:59.863Z,25.37
2022-09-23T06:19:06.710Z,24.40
2022-09-23T06:22:10.975Z,21.90
2022-09-23T06:25:13.615Z,20.08
2022-09-23T06:28:16.173Z,19.42
2022-09-23T06:31:21.845Z,16.47
2022-09-23T06:34:24.467Z,17.10
2022-09-23T06:37:26.933Z,13.13
2022-09-23T06:40:31.286Z,14.38
2022-09-23T06:43:34.141Z,14.50
2022-09-23T06:46:38.226Z,14.03
2022-09-23T06:49:41.296Z,13.02
2022-09-23T06:52:51.224Z,11.77
2022-09-23T06:56:07.740Z,11.75
2022-09-23T06:59:13.208Z,18.42
2022-09-23T07:02:16.089Z,14.27
2022-09-23T07:05:18.647Z,14.13
2022-09-23T07:08:21.502Z,12.32
2022-09-23T07:11:23.963Z,12.88
2022-09-23T07:14:30.001Z,10.95
2022-09-23T07:17:32.589Z,16.53
2022-09-23T07:20:38.528Z,13.95
2022-09-23T07:23:42.529Z,11.50
2022-09-23T07:26:49.075Z,11.10
2022-09-23T07:29:52.203Z,11.65
2022-09-23T07:32:54.840Z,13.23
2022-09-23T07:35:57.631Z,13.80
2022-09-23T07:39:03.697Z,11.40
2022-09-23T07:42:06.828Z,14.25
2022-09-23T07:45:09.527Z,10.73
2022-09-23T07:48:12.124Z,10.03
2022-09-23T07:51:21.180Z,11.70
2022-09-23T07:54:25.653Z,12.10
2022-09-23T07:57:28.130Z,10.52
2022-09-23T08:00:30.860Z,12.25
2022-09-23T08:03:33.780Z,10.20
2022-09-23T08:06:40.531Z,12.43
2022-09-23T08:09:44.157Z,10.70
2022-09-23T08:12:47.928Z,11.32
2022-09-23T08:15:55.198Z,9.63
2022-09-23T08:18:58.114Z,9.23
2022-09-23T08:22:00.675Z,10.35
2022-09-23T08:25:22.111Z,8.95
2022-09-23T08:28:26.195Z,9.65
2022-09-23T08:31:28.798Z,9.48
2022-09-23T08:34:31.262Z,10.37
2022-09-23T08:37:33.763Z,8.27
2022-09-23T08:40:41.559Z,9.50
2022-09-23T08:43:49.166Z,8.30
2022-09-23T08:47:06.621Z,8.90
2022-09-23T08:50:16.356Z,10.43
2022-09-23T08:53:30.215Z,9.77
2022-09-23T08:56:35.405Z,9.18
2022-09-23T08:59:43.246Z,9.50
2022-09-23T09:02:45.924Z,9.40
2022-09-23T09:05:54.171Z,9.43
2022-09-23T09:09:02.234Z,10.15
2022-09-23T09:12:38.488Z,8.77
2022-09-23T09:15:50.205Z,9.43
2022-09-23T09:18:55.263Z,8.30
2022-09-23T09:21:58.052Z,8.77
2022-09-23T09:25:10.120Z,9.80
2022-09-23T09:28:20.521Z,8.40
2022-09-23T09:31:36.323Z,8.88
2022-09-23T09:34:54.979Z,7.72
2022-09-23T09:37:57.494Z,9.67
2022-09-23T09:41:02.260Z,10.82
2022-09-23T09:44:16.357Z,7.95
2022-09-23T09:47:48.429Z,7.60
2022-09-23T09:50:52.343Z,10.43
2022-09-23T09:53:57.012Z,7.53
2022-09-23T09:57:04.973Z,7.12
2022-09-23T10:00:35.789Z,8.82
2022-09-23T10:03:40.108Z,7.18
2022-09-23T10:06:42.766Z,7.95
2022-09-23T10:09:50.463Z,7.83
2022-09-23T10:12:53.005Z,8.82
2022-09-23T10:15:57.004Z,7.32
2022-09-23T10:19:00.897Z,7.70
2022-09-23T10:22:06.426Z,7.95
2022-09-23T10:25:15.692Z,8.07
2022-09-23T10:28:51.495Z,7.40
2022-09-23T10:32:21.049Z,8.13
2022-09-23T10:35:25.331Z,6.80
2022-09-23T10:38:27.998Z,7.15
2022-09-23T10:42:00.197Z,8.00
2022-09-23T10:45:41.055Z,7.32
2022-09-23T10:49:00.043Z,8.52
2022-09-23T10:52:17.276Z,7.10
2022-09-23T10:55:32.186Z,7.10
2022-09-23T10:58:53.518Z,7.67
2022-09-23T11:02:23.868Z,8.82
2022-09-23T11:05:41.789Z,7.75
2022-09-23T11:09:15.781Z,7.28
2022-09-23T11:12:27.481Z,7.12
2022-09-23T11:15:41.238Z,7.43
2022-09-23T11:18:51.154Z,6.70
2022-09-23T11:22:15.990Z,8.65
2022-09-23T11:25:31.371Z,6.82
2022-09-23T11:28:56.098Z,8.10
2022-09-23T11:32:27.723Z,10.17
2022-09-23T11:35:41.785Z,7.68
2022-09-23T11:38:46.815Z,6.65
2022-09-23T11:41:56.949Z,6.87
2022-09-23T11:45:16.341Z,7.65
2022-09-23T11:48:26.114Z,7.87
2022-09-23T11:51:42.601Z,6.87
2022-09-23T11:55:02.064Z,8.80
2022-09-23T11:58:24.870Z,6.50
2022-09-23T12:01:37.882Z,8.52
2022-09-23T12:04:56.516Z,6.70
2022-09-23T12:08:15.888Z,8.43
2022-09-23T12:11:38.033Z,6.43
2022-09-23T12:14:50.280Z,6.68
2022-09-23T12:18:01.639Z,6.35
2022-09-23T12:21:18.294Z,6.33
2022-09-23T12:24:33.032Z,11.95
2022-09-23T12:27:39.390Z,7.05
2022-09-23T12:30:42.435Z,7.30
2022-09-23T12:33:52.888Z,7.22
2022-09-23T12:37:02.880Z,5.87
2022-09-23T12:40:28.495Z,7.43
2022-09-23T12:43:35.690Z,7.47
2022-09-23T12:46:38.953Z,6.30
2022-09-23T12:49:42.517Z,6.32
2022-09-23T12:52:45.040Z,6.00
2022-09-23T12:55:51.770Z,8.85
2022-09-23T12:59:09.812Z,8.50
2022-09-23T13:02:27.840Z,6.25
2022-09-23T13:05:48.816Z,6.68
2022-09-23T13:08:52.558Z,5.80
2022-09-23T13:12:05.514Z,5.15
2022-09-23T13:15:25.826Z,5.45
2022-09-23T13:18:48.291Z,4.65
2022-09-23T13:22:09.083Z,5.40
2022-09-23T13:25:41.215Z,5.03
2022-09-23T13:28:54.161Z,5.68
2022-09-23T13:32:00.294Z,5.30
2022-09-23T13:35:02.976Z,6.05
2022-09-23T13:38:19.339Z,5.62
2022-09-23T13:41:28.852Z,5.03
2022-09-23T13:44:31.438Z,5.50
2022-09-23T13:47:35.759Z,6.25
2022-09-23T13:50:41.097Z,8.05
2022-09-23T13:53:52.099Z,7.25
2022-09-23T13:56:56.649Z,6.03
2022-09-23T14:00:21.062Z,5.45
2022-09-23T14:03:26.000Z,6.65
2022-09-23T14:06:32.086Z,8.60
2022-09-23T14:09:36.526Z,6.90
2022-09-23T14:12:39.663Z,4.87
2022-09-23T14:15:42.219Z,5.25
2022-09-23T14:18:47.033Z,6.25
2022-09-23T14:21:54.339Z,5.75
2022-09-23T14:24:57.585Z,5.70
2022-09-23T14:28:00.667Z,5.60
2022-09-23T14:31:03.303Z,5.85
2022-09-23T14:34:06.760Z,5.90
2022-09-23T14:37:51.529Z,5.40
2022-09-23T14:41:16.950Z,6.37
2022-09-23T14:44:22.876Z,5.30
2022-09-23T14:47:25.737Z,7.28
2022-09-23T14:50:48.708Z,5.55
2022-09-23T14:53:51.264Z,5.47
2022-09-23T14:56:54.766Z,6.25
2022-09-23T15:00:06.824Z,5.90
2022-09-23T15:03:15.704Z,5.30
2022-09-23T15:06:18.532Z,5.72
2022-09-23T15:09:23.981Z,5.87
2022-09-23T15:12:27.745Z,7.85
2022-09-23T15:15:31.261Z,6.00
2022-09-23T15:18:36.272Z,6.25
2022-09-23T15:21:44.261Z,7.40
2022-09-23T15:24:47.149Z,5.85
2022-09-23T15:28:03.142Z,7.00
2022-09-23T15:31:06.301Z,8.40
2022-09-23T15:34:11.005Z,6.95
2022-09-23T15:37:13.654Z,10.07
2022-09-23T15:40:22.864Z,5.90
2022-09-23T15:43:27.270Z,13.90
2022-09-23T15:46:30.579Z,10.87
2022-09-23T15:49:36.379Z,7.65
2022-09-23T15:52:40.071Z,7.45
2022-09-23T15:55:42.882Z,6.15
2022-09-23T15:58:45.425Z,7.10
2022-09-23T16:01:48.270Z,6.60
2022-09-23T16:04:51.139Z,6.60
2022-09-23T16:07:54.011Z,7.15
2022-09-23T16:10:56.733Z,6.30
2022-09-23T16:14:00.958Z,7.03
2022-09-23T16:17:03.714Z,8.50
2022-09-23T16:20:06.797Z,14.23
2022-09-23T16:23:37.661Z,7.30
2022-09-23T16:26:41.161Z,11.18
2022-09-23T16:29:43.733Z,7.57
2022-09-23T16:32:46.326Z,8.17
2022-09-23T16:35:50.225Z,21.85
2022-09-23T16:38:55.640Z,11.93
2022-09-23T16:41:58.726Z,8.75
2022-09-23T16:45:03.148Z,7.85
2022-09-23T16:48:06.377Z,7.43
2022-09-23T16:51:14.995Z,8.15
2022-09-23T16:54:20.332Z,11.23
2022-09-23T16:57:33.835Z,11.68
2022-09-23T17:01:21.186Z,12.45
2022-09-23T17:05:09.329Z,10.23
2022-09-23T17:08:37.526Z,14.82
2022-09-23T17:12:25.784Z,15.00
2022-09-23T17:16:02.849Z,12.63
2022-09-23T17:20:02.332Z,12.27
2022-09-23T17:23:34.886Z,10.07
2022-09-23T17:26:54.934Z,10.05
2022-09-23T17:30:00.499Z,10.10
2022-09-23T17:33:03.275Z,13.57
2022-09-23T17:36:08.047Z,12.90
2022-09-23T17:39:10.897Z,11.60
2022-09-23T17:42:14.749Z,13.68
2022-09-23T17:45:17.309Z,11.98
2022-09-23T17:48:21.703Z,12.63
2022-09-23T17:51:25.345Z,14.00
2022-09-23T17:54:28.091Z,13.87
2022-09-23T17:57:30.657Z,19.02
2022-09-23T18:00:33.365Z,21.10
2022-09-23T18:03:36.016Z,32.33
2022-09-23T18:06:38.747Z,23.40
2022-09-23T18:09:44.576Z,28.17
2022-09-23T18:12:47.262Z,26.70
2022-09-23T18:15:50.554Z,30.40
2022-09-23T18:18:59.202Z,28.92
2022-09-23T18:22:01.884Z,30.83
2022-09-23T18:25:22.759Z,32.53
2022-09-23T18:28:34.018Z,38.22
2022-09-23T18:31:38.688Z,66.35
2022-09-23T18:34:41.421Z,86.37
2022-09-23T18:37:44.025Z,111.55
2022-09-23T18:40:56.209Z,101.90
2022-09-23T18:43:59.006Z,95.80
2022-09-23T18:47:03.565Z,86.12
2022-09-23T18:50:26.105Z,83.43
2022-09-23T18:53:28.699Z,62.85
2022-09-23T18:56:37.263Z,58.20
2022-09-23T18:59:40.526Z,49.90
2022-09-23T19:02:46.493Z,40.70
2022-09-23T19:05:49.739Z,41.33
2022-09-23T19:08:53.845Z,33.20
2022-09-23T19:11:56.594Z,34.77
2022-09-23T19:14:59.110Z,38.17
2022-09-23T19:18:02.329Z,41.47
2022-09-23T19:21:12.167Z,42.10
2022-09-23T19:24:19.953Z,42.42
2022-09-23T19:27:23.300Z,44.23
2022-09-23T19:30:26.071Z,43.67
2022-09-23T19:33:28.899Z,40.33
2022-09-23T19:36:37.895Z,37.88
2022-09-23T19:39:41.059Z,43.17
2022-09-23T19:42:43.663Z,37.00
2022-09-23T19:45:53.700Z,41.58
2022-09-23T19:48:57.394Z,40.83
2022-09-23T19:52:00.497Z,38.45
2022-09-23T19:55:03.120Z,36.50
2022-09-23T19:58:05.751Z,38.60
2022-09-23T20:01:08.615Z,41.90
2022-09-23T20:04:12.483Z,37.63
2022-09-23T20:07:19.377Z,42.28
2022-09-23T20:10:22.908Z,49.65
2022-09-23T20:13:25.562Z,51.97
2022-09-23T20:16:30.111Z,59.53
2022-09-23T20:19:32.774Z,57.35
2022-09-23T20:22:35.411Z,62.55
2022-09-23T20:25:56.717Z,66.15
2022-09-23T20:29:02.506Z,73.00
2022-09-23T20:32:05.414Z,63.67
2022-09-23T20:35:08.374Z,67.00
2022-09-23T20:38:11.147Z,69.68
2022-09-23T20:41:23.264Z,64.85
2022-09-23T20:44:25.940Z,69.57
2022-09-23T20:47:28.470Z,65.53
2022-09-23T20:50:31.113Z,62.58
2022-09-23T20:53:37.335Z,59.97
2022-09-23T20:56:40.225Z,58.78
2022-09-23T20:59:43.683Z,55.20
2022-09-23T21:02:46.296Z,54.28
2022-09-23T21:05:49.942Z,61.25
2022-09-23T21:08:53.634Z,55.20
2022-09-23T21:11:56.111Z,56.53
2022-09-23T21:14:58.757Z,62.17
2022-09-23T21:18:01.253Z,54.47
2022-09-23T21:21:04.860Z,54.92
2022-09-23T21:24:36.158Z,53.53
2022-09-23T21:27:30.743Z,60.95
2022-09-23T21:30:33.254Z,56.73
2022-09-23T21:33:39.053Z,58.33
2022-09-23T21:36:43.256Z,58.87
2022-09-23T21:40:05.745Z,55.40
2022-09-23T21:43:08.377Z,59.78
2022-09-23T21:46:15.658Z,54.77
2022-09-23T21:49:18.221Z,50.65
2022-09-23T21:52:20.749Z,53.00
2022-09-23T21:55:25.467Z,56.60
2022-09-23T21:58:29.239Z,54.22
2022-09-23T22:01:35.215Z,57.10
2022-09-23T22:04:37.965Z,53.30
2022-09-23T22:07:40.557Z,60.20
2022-09-23T22:10:43.130Z,58.47
2022-09-23T22:13:45.690Z,53.35
2022-09-23T22:16:48.316Z,53.30
2022-09-23T22:19:51.333Z,54.50
2022-09-23T22:22:54.437Z,59.30
2022-09-23T22:26:02.279Z,59.78
2022-09-23T22:29:26.595Z,64.50
2022-09-23T22:32:41.277Z,59.63
2022-09-23T22:35:43.850Z,62.35
2022-09-23T22:38:46.310Z,59.33
2022-09-23T22:41:50.885Z,57.75
2022-09-23T22:44:55.645Z,52.33
2022-09-23T22:47:58.205Z,55.83
2022-09-23T22:51:04.513Z,55.45
2022-09-23T22:54:07.474Z,56.85
2022-09-23T22:57:09.979Z,53.38
2022-09-23T23:00:13.163Z,54.40
2022-09-23T23:03:20.699Z,51.63
2022-09-23T23:06:23.254Z,48.92
2022-09-23T23:09:26.176Z,50.60
2022-09-23T23:12:34.711Z,48.78
2022-09-23T23:15:40.458Z,44.28
2022-09-23T23:18:43.554Z,43.93
2022-09-23T23:21:46.135Z,49.97
2022-09-23T23:24:48.635Z,47.33
2022-09-23T23:27:51.150Z,46.83
2022-09-23T23:30:53.669Z,42.80
2022-09-23T23:33:56.207Z,42.70
2022-09-23T23:36:58.696Z,40.83
2022-09-23T23:40:03.357Z,44.72
2022-09-23T23:43:05.906Z,40.92
2022-09-23T23:46:08.875Z,40.33
2022-09-23T23:49:11.514Z,41.80
2022-09-23T23:52:14.035Z,38.90
2022-09-23T23:55:17.118Z,44.15
2022-09-23T23:58:19.633Z,39.33
